sensor_id;sensor_type;location;lat;lon;timestamp;temperature;humidity
44775;DHT22;31340;51.402;0.016;2023-04-08T00:01:50;9.90;97.50
44775;DHT22;31340;51.402;0.016;2023-04-08T00:04:19;9.90;97.70
44775;DHT22;31340;51.402;0.016;2023-04-08T00:06:46;9.90;97.90
44775;DHT22;31340;51.402;0.016;2023-04-08T00:09:14;9.90;98.10
44775;DHT22;31340;51.402;0.016;2023-04-08T00:11:41;9.80;98.20
44775;DHT22;31340;51.402;0.016;2023-04-08T00:14:09;9.80;98.40
44775;DHT22;31340;51.402;0.016;2023-04-08T00:16:37;9.80;98.60
44775;DHT22;31340;51.402;0.016;2023-04-08T00:19:05;9.70;98.70
44775;DHT22;31340;51.402;0.016;2023-04-08T00:21:33;9.70;98.80
44775;DHT22;31340;51.402;0.016;2023-04-08T00:24:01;9.70;99.00
44775;DHT22;31340;51.402;0.016;2023-04-08T00:26:28;9.70;99.10
44775;DHT22;31340;51.402;0.016;2023-04-08T00:28:55;9.60;99.20
44775;DHT22;31340;51.402;0.016;2023-04-08T00:31:23;9.60;99.30
44775;DHT22;31340;51.402;0.016;2023-04-08T00:33:50;9.60;99.40
44775;DHT22;31340;51.402;0.016;2023-04-08T00:36:18;9.60;99.50
44775;DHT22;31340;51.402;0.016;2023-04-08T00:38:45;9.60;99.60
44775;DHT22;31340;51.402;0.016;2023-04-08T00:41:13;9.60;99.70
44775;DHT22;31340;51.402;0.016;2023-04-08T00:43:40;9.60;99.70
44775;DHT22;31340;51.402;0.016;2023-04-08T00:46:08;9.60;99.80
44775;DHT22;31340;51.402;0.016;2023-04-08T00:48:36;9.50;99.80
44775;DHT22;31340;51.402;0.016;2023-04-08T00:51:03;9.50;99.90
44775;DHT22;31340;51.402;0.016;2023-04-08T00:53:31;9.50;99.90
44775;DHT22;31340;51.402;0.016;2023-04-08T00:55:59;9.50;99.90
44775;DHT22;31340;51.402;0.016;2023-04-08T00:58:28;9.50;99.90
44775;DHT22;31340;51.402;0.016;2023-04-08T01:01:04;9.50;99.90
44775;DHT22;31340;51.402;0.016;2023-04-08T01:03:50;9.50;99.90
44775;DHT22;31340;51.402;0.016;2023-04-08T01:06:23;9.40;99.90
44775;DHT22;31340;51.402;0.016;2023-04-08T01:08:58;9.40;99.90
44775;DHT22;31340;51.402;0.016;2023-04-08T01:11:28;9.40;99.90
44775;DHT22;31340;51.402;0.016;2023-04-08T01:13:57;9.40;99.90
44775;DHT22;31340;51.402;0.016;2023-04-08T01:16:26;9.40;99.90
44775;DHT22;31340;51.402;0.016;2023-04-08T01:18:53;9.40;99.90
44775;DHT22;31340;51.402;0.016;2023-04-08T01:21:22;9.40;99.90
44775;DHT22;31340;51.402;0.016;2023-04-08T01:24:19;9.40;99.90
44775;DHT22;31340;51.402;0.016;2023-04-08T01:26:50;9.40;99.90
44775;DHT22;31340;51.402;0.016;2023-04-08T01:29:18;9.30;99.90
44775;DHT22;31340;51.402;0.016;2023-04-08T01:31:47;9.30;99.90
44775;DHT22;31340;51.402;0.016;2023-04-08T01:34:16;9.30;99.90
44775;DHT22;31340;51.402;0.016;2023-04-08T01:36:46;9.30;99.90
44775;DHT22;31340;51.402;0.016;2023-04-08T01:39:15;9.30;99.90
44775;DHT22;31340;51.402;0.016;2023-04-08T01:41:46;9.20;99.90
44775;DHT22;31340;51.402;0.016;2023-04-08T01:44:16;9.30;99.90
44775;DHT22;31340;51.402;0.016;2023-04-08T01:46:44;9.20;99.90
44775;DHT22;31340;51.402;0.016;2023-04-08T01:49:14;9.20;99.90
44775;DHT22;31340;51.402;0.016;2023-04-08T01:51:42;9.20;99.90
44775;DHT22;31340;51.402;0.016;2023-04-08T01:54:10;9.10;99.90
44775;DHT22;31340;51.402;0.016;2023-04-08T01:56:40;9.10;99.90
44775;DHT22;31340;51.402;0.016;2023-04-08T01:59:11;9.10;99.90
44775;DHT22;31340;51.402;0.016;2023-04-08T02:01:40;9.00;99.90
44775;DHT22;31340;51.402;0.016;2023-04-08T02:04:09;9.00;99.90
44775;DHT22;31340;51.402;0.016;2023-04-08T02:06:37;8.90;99.90
44775;DHT22;31340;51.402;0.016;2023-04-08T02:09:04;8.90;99.90
44775;DHT22;31340;51.402;0.016;2023-04-08T02:11:32;9.00;99.90
44775;DHT22;31340;51.402;0.016;2023-04-08T02:14:00;8.90;99.90
44775;DHT22;31340;51.402;0.016;2023-04-08T02:16:39;9.00;99.90
44775;DHT22;31340;51.402;0.016;2023-04-08T02:19:14;8.90;99.90
44775;DHT22;31340;51.402;0.016;2023-04-08T02:21:48;8.90;99.90
44775;DHT22;31340;51.402;0.016;2023-04-08T02:24:19;8.90;99.90
44775;DHT22;31340;51.402;0.016;2023-04-08T02:26:49;8.90;99.90
44775;DHT22;31340;51.402;0.016;2023-04-08T02:29:18;8.80;99.90
44775;DHT22;31340;51.402;0.016;2023-04-08T02:31:46;8.80;99.90
44775;DHT22;31340;51.402;0.016;2023-04-08T02:34:15;8.80;99.90
44775;DHT22;31340;51.402;0.016;2023-04-08T02:36:44;8.80;99.90
44775;DHT22;31340;51.402;0.016;2023-04-08T02:39:13;8.80;99.90
44775;DHT22;31340;51.402;0.016;2023-04-08T02:41:41;8.80;99.90
44775;DHT22;31340;51.402;0.016;2023-04-08T02:44:09;8.80;99.90
44775;DHT22;31340;51.402;0.016;2023-04-08T02:46:40;8.70;99.90
44775;DHT22;31340;51.402;0.016;2023-04-08T02:49:07;8.70;99.90
44775;DHT22;31340;51.402;0.016;2023-04-08T02:51:35;8.70;99.90
44775;DHT22;31340;51.402;0.016;2023-04-08T02:54:03;8.70;99.90
44775;DHT22;31340;51.402;0.016;2023-04-08T02:56:31;8.70;99.90
44775;DHT22;31340;51.402;0.016;2023-04-08T02:58:58;8.60;99.90
44775;DHT22;31340;51.402;0.016;2023-04-08T03:01:26;8.60;99.90
44775;DHT22;31340;51.402;0.016;2023-04-08T03:03:53;8.60;99.90
44775;DHT22;31340;51.402;0.016;2023-04-08T03:06:21;8.60;99.90
44775;DHT22;31340;51.402;0.016;2023-04-08T03:08:49;8.50;99.90
44775;DHT22;31340;51.402;0.016;2023-04-08T03:11:17;8.50;99.90
44775;DHT22;31340;51.402;0.016;2023-04-08T03:13:48;8.50;99.90
44775;DHT22;31340;51.402;0.016;2023-04-08T03:16:16;8.50;99.90
44775;DHT22;31340;51.402;0.016;2023-04-08T03:18:43;8.40;99.90
44775;DHT22;31340;51.402;0.016;2023-04-08T03:21:11;8.40;99.90
44775;DHT22;31340;51.402;0.016;2023-04-08T03:23:38;8.40;99.90
44775;DHT22;31340;51.402;0.016;2023-04-08T03:26:05;8.40;99.90
44775;DHT22;31340;51.402;0.016;2023-04-08T03:28:33;8.30;99.90
44775;DHT22;31340;51.402;0.016;2023-04-08T03:31:05;8.30;99.90
44775;DHT22;31340;51.402;0.016;2023-04-08T03:33:32;8.30;99.90
44775;DHT22;31340;51.402;0.016;2023-04-08T03:36:00;8.30;99.90
44775;DHT22;31340;51.402;0.016;2023-04-08T03:38:27;8.20;99.90
44775;DHT22;31340;51.402;0.016;2023-04-08T03:40:55;8.20;99.90
44775;DHT22;31340;51.402;0.016;2023-04-08T03:43:23;8.20;99.90
44775;DHT22;31340;51.402;0.016;2023-04-08T03:45:51;8.20;99.90
44775;DHT22;31340;51.402;0.016;2023-04-08T03:48:19;8.10;99.90
44775;DHT22;31340;51.402;0.016;2023-04-08T03:50:46;8.10;99.90
44775;DHT22;31340;51.402;0.016;2023-04-08T03:53:14;8.00;99.90
44775;DHT22;31340;51.402;0.016;2023-04-08T03:55:41;8.00;99.90
44775;DHT22;31340;51.402;0.016;2023-04-08T03:58:09;8.00;99.90
44775;DHT22;31340;51.402;0.016;2023-04-08T04:00:37;8.00;99.90
44775;DHT22;31340;51.402;0.016;2023-04-08T04:03:04;8.00;99.90
44775;DHT22;31340;51.402;0.016;2023-04-08T04:05:32;7.90;99.90
44775;DHT22;31340;51.402;0.016;2023-04-08T04:08:00;7.90;99.90
44775;DHT22;31340;51.402;0.016;2023-04-08T04:10:28;7.80;99.90
44775;DHT22;31340;51.402;0.016;2023-04-08T04:12:55;7.80;99.90
44775;DHT22;31340;51.402;0.016;2023-04-08T04:15:22;7.80;99.90
44775;DHT22;31340;51.402;0.016;2023-04-08T04:17:50;7.80;99.90
44775;DHT22;31340;51.402;0.016;2023-04-08T04:20:18;7.80;99.90
44775;DHT22;31340;51.402;0.016;2023-04-08T04:22:46;7.70;99.90
44775;DHT22;31340;51.402;0.016;2023-04-08T04:25:13;7.70;99.90
44775;DHT22;31340;51.402;0.016;2023-04-08T04:27:41;7.70;99.90
44775;DHT22;31340;51.402;0.016;2023-04-08T04:30:09;7.60;99.90
44775;DHT22;31340;51.402;0.016;2023-04-08T04:32:36;7.60;99.90
44775;DHT22;31340;51.402;0.016;2023-04-08T04:35:04;7.60;99.90
44775;DHT22;31340;51.402;0.016;2023-04-08T04:37:32;7.60;99.90
44775;DHT22;31340;51.402;0.016;2023-04-08T04:40:00;7.50;99.90
44775;DHT22;31340;51.402;0.016;2023-04-08T04:42:27;7.50;99.90
44775;DHT22;31340;51.402;0.016;2023-04-08T04:44:55;7.40;99.90
44775;DHT22;31340;51.402;0.016;2023-04-08T04:47:22;7.40;99.90
44775;DHT22;31340;51.402;0.016;2023-04-08T04:49:50;7.30;99.90
44775;DHT22;31340;51.402;0.016;2023-04-08T04:52:18;7.30;99.90
44775;DHT22;31340;51.402;0.016;2023-04-08T04:54:45;7.30;99.90
44775;DHT22;31340;51.402;0.016;2023-04-08T04:57:13;7.20;99.90
44775;DHT22;31340;51.402;0.016;2023-04-08T04:59:40;7.20;99.90
44775;DHT22;31340;51.402;0.016;2023-04-08T05:02:08;7.10;99.90
44775;DHT22;31340;51.402;0.016;2023-04-08T05:04:36;7.10;99.90
44775;DHT22;31340;51.402;0.016;2023-04-08T05:07:03;7.10;99.90
44775;DHT22;31340;51.402;0.016;2023-04-08T05:09:31;7.00;99.90
44775;DHT22;31340;51.402;0.016;2023-04-08T05:11:58;7.00;99.90
44775;DHT22;31340;51.402;0.016;2023-04-08T05:14:28;7.00;99.90
44775;DHT22;31340;51.402;0.016;2023-04-08T05:16:56;6.90;99.90
44775;DHT22;31340;51.402;0.016;2023-04-08T05:19:24;6.90;99.90
44775;DHT22;31340;51.402;0.016;2023-04-08T05:21:51;6.80;99.90
44775;DHT22;31340;51.402;0.016;2023-04-08T05:24:18;6.80;99.90
44775;DHT22;31340;51.402;0.016;2023-04-08T05:26:46;6.80;99.90
44775;DHT22;31340;51.402;0.016;2023-04-08T05:29:18;6.80;99.90
44775;DHT22;31340;51.402;0.016;2023-04-08T05:31:48;6.70;99.90
44775;DHT22;31340;51.402;0.016;2023-04-08T05:34:15;6.70;99.90
44775;DHT22;31340;51.402;0.016;2023-04-08T05:36:49;6.60;99.90
44775;DHT22;31340;51.402;0.016;2023-04-08T05:39:18;6.60;99.90
44775;DHT22;31340;51.402;0.016;2023-04-08T05:41:45;6.60;99.90
44775;DHT22;31340;51.402;0.016;2023-04-08T05:44:13;6.60;99.90
44775;DHT22;31340;51.402;0.016;2023-04-08T05:46:41;6.50;99.90
44775;DHT22;31340;51.402;0.016;2023-04-08T05:49:08;6.60;99.90
44775;DHT22;31340;51.402;0.016;2023-04-08T05:51:36;6.50;99.90
44775;DHT22;31340;51.402;0.016;2023-04-08T05:54:03;6.50;99.90
44775;DHT22;31340;51.402;0.016;2023-04-08T05:56:31;6.60;99.90
44775;DHT22;31340;51.402;0.016;2023-04-08T05:58:59;6.50;99.90
44775;DHT22;31340;51.402;0.016;2023-04-08T06:01:27;6.50;99.90
44775;DHT22;31340;51.402;0.016;2023-04-08T06:03:55;6.50;99.90
44775;DHT22;31340;51.402;0.016;2023-04-08T06:06:23;6.50;99.90
44775;DHT22;31340;51.402;0.016;2023-04-08T06:08:52;6.60;99.90
44775;DHT22;31340;51.402;0.016;2023-04-08T06:11:20;6.60;99.90
44775;DHT22;31340;51.402;0.016;2023-04-08T06:13:47;6.60;99.90
44775;DHT22;31340;51.402;0.016;2023-04-08T06:16:15;6.60;99.90
44775;DHT22;31340;51.402;0.016;2023-04-08T06:18:47;6.60;99.90
44775;DHT22;31340;51.402;0.016;2023-04-08T06:21:15;6.60;99.90
44775;DHT22;31340;51.402;0.016;2023-04-08T06:23:43;6.60;99.90
44775;DHT22;31340;51.402;0.016;2023-04-08T06:26:10;6.60;99.90
44775;DHT22;31340;51.402;0.016;2023-04-08T06:28:38;6.60;99.90
44775;DHT22;31340;51.402;0.016;2023-04-08T06:31:05;6.60;99.90
44775;DHT22;31340;51.402;0.016;2023-04-08T06:33:33;6.60;99.90
44775;DHT22;31340;51.402;0.016;2023-04-08T06:36:04;6.70;99.90
44775;DHT22;31340;51.402;0.016;2023-04-08T06:38:32;6.70;99.90
44775;DHT22;31340;51.402;0.016;2023-04-08T06:41:06;6.70;99.90
44775;DHT22;31340;51.402;0.016;2023-04-08T06:43:35;6.70;99.90
44775;DHT22;31340;51.402;0.016;2023-04-08T06:46:04;6.80;99.90
44775;DHT22;31340;51.402;0.016;2023-04-08T06:48:31;6.80;99.90
44775;DHT22;31340;51.402;0.016;2023-04-08T06:50:59;6.80;99.90
44775;DHT22;31340;51.402;0.016;2023-04-08T06:53:27;6.80;99.90
44775;DHT22;31340;51.402;0.016;2023-04-08T06:55:59;6.90;99.90
44775;DHT22;31340;51.402;0.016;2023-04-08T06:58:27;6.90;99.90
44775;DHT22;31340;51.402;0.016;2023-04-08T07:00:56;7.00;99.90
44775;DHT22;31340;51.402;0.016;2023-04-08T07:03:23;7.00;99.90
44775;DHT22;31340;51.402;0.016;2023-04-08T07:05:51;7.00;99.90
44775;DHT22;31340;51.402;0.016;2023-04-08T07:08:19;7.10;99.90
44775;DHT22;31340;51.402;0.016;2023-04-08T07:10:46;7.10;99.90
44775;DHT22;31340;51.402;0.016;2023-04-08T07:13:14;7.20;99.90
44775;DHT22;31340;51.402;0.016;2023-04-08T07:15:41;7.20;99.90
44775;DHT22;31340;51.402;0.016;2023-04-08T07:18:09;7.30;99.90
44775;DHT22;31340;51.402;0.016;2023-04-08T07:20:36;7.40;99.90
44775;DHT22;31340;51.402;0.016;2023-04-08T07:23:04;7.40;99.90
44775;DHT22;31340;51.402;0.016;2023-04-08T07:25:33;7.50;99.90
44775;DHT22;31340;51.402;0.016;2023-04-08T07:28:03;7.60;99.90
44775;DHT22;31340;51.402;0.016;2023-04-08T07:30:30;7.60;99.90
44775;DHT22;31340;51.402;0.016;2023-04-08T07:32:58;7.70;99.90
44775;DHT22;31340;51.402;0.016;2023-04-08T07:35:27;7.80;99.90
44775;DHT22;31340;51.402;0.016;2023-04-08T07:37:55;7.90;99.90
44775;DHT22;31340;51.402;0.016;2023-04-08T07:40:23;7.90;99.90
44775;DHT22;31340;51.402;0.016;2023-04-08T07:42:51;8.10;99.90
44775;DHT22;31340;51.402;0.016;2023-04-08T07:45:19;8.20;99.90
44775;DHT22;31340;51.402;0.016;2023-04-08T07:47:47;8.30;99.90
44775;DHT22;31340;51.402;0.016;2023-04-08T07:50:14;8.30;99.90
44775;DHT22;31340;51.402;0.016;2023-04-08T07:52:42;8.50;99.90
44775;DHT22;31340;51.402;0.016;2023-04-08T07:55:09;8.60;99.90
44775;DHT22;31340;51.402;0.016;2023-04-08T07:57:37;8.70;99.90
44775;DHT22;31340;51.402;0.016;2023-04-08T08:00:05;8.80;99.90
44775;DHT22;31340;51.402;0.016;2023-04-08T08:02:39;8.90;99.90
44775;DHT22;31340;51.402;0.016;2023-04-08T08:05:07;9.00;99.90
44775;DHT22;31340;51.402;0.016;2023-04-08T08:07:34;9.10;99.90
44775;DHT22;31340;51.402;0.016;2023-04-08T08:10:02;9.30;99.90
44775;DHT22;31340;51.402;0.016;2023-04-08T08:12:30;9.30;99.90
44775;DHT22;31340;51.402;0.016;2023-04-08T08:14:58;9.50;99.90
44775;DHT22;31340;51.402;0.016;2023-04-08T08:17:25;9.60;99.90
44775;DHT22;31340;51.402;0.016;2023-04-08T08:19:56;9.70;99.90
44775;DHT22;31340;51.402;0.016;2023-04-08T08:22:24;9.80;99.90
44775;DHT22;31340;51.402;0.016;2023-04-08T08:24:56;9.90;99.90
44775;DHT22;31340;51.402;0.016;2023-04-08T08:27:24;10.00;99.90
44775;DHT22;31340;51.402;0.016;2023-04-08T08:29:52;10.10;99.90
44775;DHT22;31340;51.402;0.016;2023-04-08T08:32:19;10.30;99.90
44775;DHT22;31340;51.402;0.016;2023-04-08T08:34:47;10.60;99.90
44775;DHT22;31340;51.402;0.016;2023-04-08T08:37:14;10.50;99.90
44775;DHT22;31340;51.402;0.016;2023-04-08T08:39:42;10.60;99.90
44775;DHT22;31340;51.402;0.016;2023-04-08T08:42:20;10.70;99.90
44775;DHT22;31340;51.402;0.016;2023-04-08T08:44:49;10.80;99.90
44775;DHT22;31340;51.402;0.016;2023-04-08T08:47:16;10.90;99.90
44775;DHT22;31340;51.402;0.016;2023-04-08T08:49:44;11.10;99.90
44775;DHT22;31340;51.402;0.016;2023-04-08T08:52:15;11.20;99.90
44775;DHT22;31340;51.402;0.016;2023-04-08T08:54:44;11.30;99.90
44775;DHT22;31340;51.402;0.016;2023-04-08T08:57:17;11.50;99.90
44775;DHT22;31340;51.402;0.016;2023-04-08T08:59:48;11.60;99.90
44775;DHT22;31340;51.402;0.016;2023-04-08T09:02:26;11.70;99.90
44775;DHT22;31340;51.402;0.016;2023-04-08T09:04:58;11.80;99.90
44775;DHT22;31340;51.402;0.016;2023-04-08T09:07:29;11.90;99.90
44775;DHT22;31340;51.402;0.016;2023-04-08T09:09:58;12.00;99.90
44775;DHT22;31340;51.402;0.016;2023-04-08T09:12:26;12.10;99.90
44775;DHT22;31340;51.402;0.016;2023-04-08T09:15:08;12.30;99.90
44775;DHT22;31340;51.402;0.016;2023-04-08T09:17:38;12.50;99.90
44775;DHT22;31340;51.402;0.016;2023-04-08T09:20:08;12.60;99.90
44775;DHT22;31340;51.402;0.016;2023-04-08T09:23:00;12.70;99.90
44775;DHT22;31340;51.402;0.016;2023-04-08T09:25:29;12.90;99.90
44775;DHT22;31340;51.402;0.016;2023-04-08T09:27:59;13.00;99.90
44775;DHT22;31340;51.402;0.016;2023-04-08T09:30:31;13.10;99.80
44775;DHT22;31340;51.402;0.016;2023-04-08T09:32:59;13.30;99.60
44775;DHT22;31340;51.402;0.016;2023-04-08T09:35:27;13.50;99.40
44775;DHT22;31340;51.402;0.016;2023-04-08T09:37:55;13.60;99.10
44775;DHT22;31340;51.402;0.016;2023-04-08T09:40:24;13.70;98.70
44775;DHT22;31340;51.402;0.016;2023-04-08T09:42:54;13.90;98.10
44775;DHT22;31340;51.402;0.016;2023-04-08T09:45:23;14.00;97.60
44775;DHT22;31340;51.402;0.016;2023-04-08T09:48:16;14.10;97.30
44775;DHT22;31340;51.402;0.016;2023-04-08T09:50:49;14.30;96.70
44775;DHT22;31340;51.402;0.016;2023-04-08T09:53:19;14.40;96.20
44775;DHT22;31340;51.402;0.016;2023-04-08T09:55:55;14.50;95.80
44775;DHT22;31340;51.402;0.016;2023-04-08T09:58:38;14.60;95.50
44775;DHT22;31340;51.402;0.016;2023-04-08T10:01:13;14.70;94.90
44775;DHT22;31340;51.402;0.016;2023-04-08T10:03:47;14.80;95.10
44775;DHT22;31340;51.402;0.016;2023-04-08T10:06:16;14.90;94.80
44775;DHT22;31340;51.402;0.016;2023-04-08T10:08:44;15.10;94.50
44775;DHT22;31340;51.402;0.016;2023-04-08T10:11:14;15.10;94.10
44775;DHT22;31340;51.402;0.016;2023-04-08T10:13:43;15.20;93.70
44775;DHT22;31340;51.402;0.016;2023-04-08T10:16:24;15.30;93.60
44775;DHT22;31340;51.402;0.016;2023-04-08T10:18:54;15.30;93.20
44775;DHT22;31340;51.402;0.016;2023-04-08T10:21:39;15.30;93.30
44775;DHT22;31340;51.402;0.016;2023-04-08T10:24:09;15.40;92.80
44775;DHT22;31340;51.402;0.016;2023-04-08T10:31:48;15.60;92.00
44775;DHT22;31340;51.402;0.016;2023-04-08T10:34:21;15.70;91.90
44775;DHT22;31340;51.402;0.016;2023-04-08T10:36:52;15.80;91.80
44775;DHT22;31340;51.402;0.016;2023-04-08T10:39:19;15.80;91.50
44775;DHT22;31340;51.402;0.016;2023-04-08T10:41:49;15.90;91.00
44775;DHT22;31340;51.402;0.016;2023-04-08T10:44:19;16.00;90.50
44775;DHT22;31340;51.402;0.016;2023-04-08T10:46:49;16.10;90.10
44775;DHT22;31340;51.402;0.016;2023-04-08T10:49:17;16.20;89.30
44775;DHT22;31340;51.402;0.016;2023-04-08T10:51:45;16.20;89.00
44775;DHT22;31340;51.402;0.016;2023-04-08T10:54:15;16.40;89.20
44775;DHT22;31340;51.402;0.016;2023-04-08T10:56:51;16.50;89.00
44775;DHT22;31340;51.402;0.016;2023-04-08T10:59:30;16.60;91.20
44775;DHT22;31340;51.402;0.016;2023-04-08T11:01:59;16.80;90.20
44775;DHT22;31340;51.402;0.016;2023-04-08T11:04:27;17.00;89.30
44775;DHT22;31340;51.402;0.016;2023-04-08T11:06:55;17.20;87.50
44775;DHT22;31340;51.402;0.016;2023-04-08T11:09:24;17.40;86.40
44775;DHT22;31340;51.402;0.016;2023-04-08T11:11:54;17.60;85.40
44775;DHT22;31340;51.402;0.016;2023-04-08T11:14:23;17.80;85.00
44775;DHT22;31340;51.402;0.016;2023-04-08T11:16:51;18.00;83.60
44775;DHT22;31340;51.402;0.016;2023-04-08T11:19:19;18.20;82.40
44775;DHT22;31340;51.402;0.016;2023-04-08T11:21:46;18.40;81.20
44775;DHT22;31340;51.402;0.016;2023-04-08T11:24:14;18.60;79.70
44775;DHT22;31340;51.402;0.016;2023-04-08T11:26:44;18.70;78.50
44775;DHT22;31340;51.402;0.016;2023-04-08T11:29:12;18.90;78.10
44775;DHT22;31340;51.402;0.016;2023-04-08T11:31:43;19.00;77.80
44775;DHT22;31340;51.402;0.016;2023-04-08T11:34:11;19.10;77.10
44775;DHT22;31340;51.402;0.016;2023-04-08T11:36:39;19.20;76.90
44775;DHT22;31340;51.402;0.016;2023-04-08T11:39:11;19.40;76.30
44775;DHT22;31340;51.402;0.016;2023-04-08T11:41:38;19.60;74.80
44775;DHT22;31340;51.402;0.016;2023-04-08T11:44:09;19.70;75.90
44775;DHT22;31340;51.402;0.016;2023-04-08T11:46:36;19.70;74.80
44775;DHT22;31340;51.402;0.016;2023-04-08T11:49:05;19.80;73.00
44775;DHT22;31340;51.402;0.016;2023-04-08T11:51:37;19.90;72.40
44775;DHT22;31340;51.402;0.016;2023-04-08T11:54:39;19.90;71.40
44775;DHT22;31340;51.402;0.016;2023-04-08T11:57:07;20.00;69.80
44775;DHT22;31340;51.402;0.016;2023-04-08T11:59:36;19.90;69.00
44775;DHT22;31340;51.402;0.016;2023-04-08T12:02:04;19.90;68.20
44775;DHT22;31340;51.402;0.016;2023-04-08T12:04:32;19.90;67.60
44775;DHT22;31340;51.402;0.016;2023-04-08T12:07:00;19.80;67.00
44775;DHT22;31340;51.402;0.016;2023-04-08T12:09:28;19.80;66.10
44775;DHT22;31340;51.402;0.016;2023-04-08T12:11:55;19.70;66.50
44775;DHT22;31340;51.402;0.016;2023-04-08T12:14:23;19.70;65.50
44775;DHT22;31340;51.402;0.016;2023-04-08T12:16:54;19.70;65.80
44775;DHT22;31340;51.402;0.016;2023-04-08T12:19:21;19.70;67.40
44775;DHT22;31340;51.402;0.016;2023-04-08T12:21:49;19.70;65.80
44775;DHT22;31340;51.402;0.016;2023-04-08T12:24:17;19.70;65.40
44775;DHT22;31340;51.402;0.016;2023-04-08T12:26:44;19.70;65.30
44775;DHT22;31340;51.402;0.016;2023-04-08T12:29:12;19.80;65.00
44775;DHT22;31340;51.402;0.016;2023-04-08T12:31:39;19.90;64.60
44775;DHT22;31340;51.402;0.016;2023-04-08T12:34:07;20.00;64.10
44775;DHT22;31340;51.402;0.016;2023-04-08T12:36:35;20.00;63.30
44775;DHT22;31340;51.402;0.016;2023-04-08T12:39:03;20.00;63.20
44775;DHT22;31340;51.402;0.016;2023-04-08T12:41:31;19.90;62.70
44775;DHT22;31340;51.402;0.016;2023-04-08T12:43:59;20.00;62.50
44775;DHT22;31340;51.402;0.016;2023-04-08T12:46:27;20.00;62.40
44775;DHT22;31340;51.402;0.016;2023-04-08T12:48:55;20.00;62.10
44775;DHT22;31340;51.402;0.016;2023-04-08T12:51:31;20.10;62.20
44775;DHT22;31340;51.402;0.016;2023-04-08T12:53:59;20.10;62.40
44775;DHT22;31340;51.402;0.016;2023-04-08T12:56:27;20.30;62.10
44775;DHT22;31340;51.402;0.016;2023-04-08T12:58:55;20.50;62.00
44775;DHT22;31340;51.402;0.016;2023-04-08T13:01:23;20.70;61.90
44775;DHT22;31340;51.402;0.016;2023-04-08T13:03:52;20.90;61.60
44775;DHT22;31340;51.402;0.016;2023-04-08T13:06:19;21.20;60.50
44775;DHT22;31340;51.402;0.016;2023-04-08T13:08:48;21.50;59.90
44775;DHT22;31340;51.402;0.016;2023-04-08T13:11:16;21.80;59.00
44775;DHT22;31340;51.402;0.016;2023-04-08T13:13:44;22.00;58.20
44775;DHT22;31340;51.402;0.016;2023-04-08T13:16:13;22.30;57.70
44775;DHT22;31340;51.402;0.016;2023-04-08T13:18:41;22.50;57.20
44775;DHT22;31340;51.402;0.016;2023-04-08T13:21:09;22.70;56.80
44775;DHT22;31340;51.402;0.016;2023-04-08T13:23:37;23.00;56.20
44775;DHT22;31340;51.402;0.016;2023-04-08T13:26:05;23.20;55.50
44775;DHT22;31340;51.402;0.016;2023-04-08T13:28:33;23.40;54.80
44775;DHT22;31340;51.402;0.016;2023-04-08T13:31:21;23.60;54.00
44775;DHT22;31340;51.402;0.016;2023-04-08T13:33:48;23.70;53.30
44775;DHT22;31340;51.402;0.016;2023-04-08T13:36:16;23.70;52.60
44775;DHT22;31340;51.402;0.016;2023-04-08T13:38:43;23.80;51.60
44775;DHT22;31340;51.402;0.016;2023-04-08T13:41:12;23.80;50.90
44775;DHT22;31340;51.402;0.016;2023-04-08T13:43:40;23.70;50.40
44775;DHT22;31340;51.402;0.016;2023-04-08T13:46:08;23.50;50.30
44775;DHT22;31340;51.402;0.016;2023-04-08T13:48:36;23.50;49.70
44775;DHT22;31340;51.402;0.016;2023-04-08T13:51:03;23.40;49.80
44775;DHT22;31340;51.402;0.016;2023-04-08T13:53:31;23.30;49.80
44775;DHT22;31340;51.402;0.016;2023-04-08T13:55:59;23.20;49.80
44775;DHT22;31340;51.402;0.016;2023-04-08T13:58:27;23.10;50.40
44775;DHT22;31340;51.402;0.016;2023-04-08T14:00:54;23.10;50.40
44775;DHT22;31340;51.402;0.016;2023-04-08T14:03:22;23.10;50.20
44775;DHT22;31340;51.402;0.016;2023-04-08T14:05:50;23.00;50.00
44775;DHT22;31340;51.402;0.016;2023-04-08T14:08:18;23.00;49.90
44775;DHT22;31340;51.402;0.016;2023-04-08T14:10:54;23.00;49.70
44775;DHT22;31340;51.402;0.016;2023-04-08T14:13:22;23.10;49.50
44775;DHT22;31340;51.402;0.016;2023-04-08T14:15:50;23.20;49.80
44775;DHT22;31340;51.402;0.016;2023-04-08T14:18:19;23.40;50.30
44775;DHT22;31340;51.402;0.016;2023-04-08T14:20:47;23.50;50.30
44775;DHT22;31340;51.402;0.016;2023-04-08T14:23:14;23.80;50.00
44775;DHT22;31340;51.402;0.016;2023-04-08T14:25:43;23.90;50.00
44775;DHT22;31340;51.402;0.016;2023-04-08T14:28:10;24.00;50.10
44775;DHT22;31340;51.402;0.016;2023-04-08T14:30:38;24.20;50.00
44775;DHT22;31340;51.402;0.016;2023-04-08T14:33:06;24.20;49.10
44775;DHT22;31340;51.402;0.016;2023-04-08T14:35:34;24.20;48.10
44775;DHT22;31340;51.402;0.016;2023-04-08T14:38:03;24.00;48.50
44775;DHT22;31340;51.402;0.016;2023-04-08T14:40:30;23.80;48.80
44775;DHT22;31340;51.402;0.016;2023-04-08T14:42:58;23.60;49.40
44775;DHT22;31340;51.402;0.016;2023-04-08T14:45:25;23.40;49.60
44775;DHT22;31340;51.402;0.016;2023-04-08T14:47:53;23.30;49.80
44775;DHT22;31340;51.402;0.016;2023-04-08T14:50:21;23.10;50.10
44775;DHT22;31340;51.402;0.016;2023-04-08T14:52:48;23.00;50.50
44775;DHT22;31340;51.402;0.016;2023-04-08T14:55:16;23.10;51.10
44775;DHT22;31340;51.402;0.016;2023-04-08T14:57:44;23.10;51.20
44775;DHT22;31340;51.402;0.016;2023-04-08T15:00:12;23.20;52.10
44775;DHT22;31340;51.402;0.016;2023-04-08T15:02:40;23.20;51.00
44775;DHT22;31340;51.402;0.016;2023-04-08T15:05:08;23.10;51.10
44775;DHT22;31340;51.402;0.016;2023-04-08T15:07:35;23.10;51.00
44775;DHT22;31340;51.402;0.016;2023-04-08T15:10:03;23.00;50.90
44775;DHT22;31340;51.402;0.016;2023-04-08T15:12:30;23.10;50.90
44775;DHT22;31340;51.402;0.016;2023-04-08T15:14:59;23.00;50.50
44775;DHT22;31340;51.402;0.016;2023-04-08T15:17:27;23.10;50.60
44775;DHT22;31340;51.402;0.016;2023-04-08T15:19:54;23.20;50.50
44775;DHT22;31340;51.402;0.016;2023-04-08T15:22:22;23.20;50.40
44775;DHT22;31340;51.402;0.016;2023-04-08T15:24:49;23.30;50.50
44775;DHT22;31340;51.402;0.016;2023-04-08T15:27:17;23.20;50.50
44775;DHT22;31340;51.402;0.016;2023-04-08T15:29:45;23.20;50.50
44775;DHT22;31340;51.402;0.016;2023-04-08T15:32:13;23.10;50.60
44775;DHT22;31340;51.402;0.016;2023-04-08T15:34:41;23.00;50.20
44775;DHT22;31340;51.402;0.016;2023-04-08T15:37:08;23.00;50.20
44775;DHT22;31340;51.402;0.016;2023-04-08T15:39:35;22.80;50.60
44775;DHT22;31340;51.402;0.016;2023-04-08T15:42:03;22.60;50.10
44775;DHT22;31340;51.402;0.016;2023-04-08T15:44:31;22.40;50.40
44775;DHT22;31340;51.402;0.016;2023-04-08T15:46:59;22.30;50.70
44775;DHT22;31340;51.402;0.016;2023-04-08T15:49:27;22.10;50.90
44775;DHT22;31340;51.402;0.016;2023-04-08T15:51:54;22.00;51.10
44775;DHT22;31340;51.402;0.016;2023-04-08T15:54:22;21.80;51.20
44775;DHT22;31340;51.402;0.016;2023-04-08T15:56:50;21.70;51.50